Time;durP1;ratioP1;P1;durP2;ratioP2;P2;SDS_P1;SDS_P2;PMS_P1;PMS_P2;Temp;Humidity;BMP_temperature;BMP_pressure;BME280_temperature;BME280_humidity;BME280_pressure;Samples;Min_cycle;Max_cycle;Signal;HPM_P1;HPM_P2
2023/02/12 00:01:27;;;;;;;16.83;10.32;;;7.10;99.90;;;;;;5059727;28;20070;-78
2023/02/12 00:03:53;;;;;;;14.43;9.25;;;7.10;99.90;;;;;;5059511;28;20029;-78
2023/02/12 00:06:19;;;;;;;16.63;10.73;;;7.10;99.90;;;;;;5072321;28;20059;-78
2023/02/12 00:08:49;;;;;;;14.02;9.93;;;7.10;99.90;;;;;;5044821;28;20036;-78
2023/02/12 00:11:17;;;;;;;13.57;7.90;;;7.00;99.90;;;;;;5071595;28;20036;-77
2023/02/12 00:13:43;;;;;;;13.30;7.45;;;7.00;99.90;;;;;;5072802;28;20033;-78
2023/02/12 00:16:15;;;;;;;12.32;7.85;;;7.10;99.90;;;;;;5061197;28;20036;-78
2023/02/12 00:18:42;;;;;;;15.05;9.02;;;7.00;99.90;;;;;;5058397;28;20076;-77
2023/02/12 00:21:07;;;;;;;14.82;10.32;;;7.00;99.90;;;;;;5054412;28;20107;-78
2023/02/12 00:23:34;;;;;;;15.93;10.10;;;7.00;99.90;;;;;;5063855;28;20561;-77
2023/02/12 00:25:59;;;;;;;11.52;8.20;;;7.00;99.90;;;;;;5056969;28;20025;-77
2023/02/12 00:28:26;;;;;;;16.27;10.30;;;6.90;99.90;;;;;;5055599;28;20125;-78
2023/02/12 00:30:51;;;;;;;14.70;8.93;;;6.80;99.90;;;;;;5060153;28;20032;-78
2023/02/12 00:33:17;;;;;;;11.80;7.95;;;6.80;99.90;;;;;;5054392;28;20017;-77
2023/02/12 00:35:44;;;;;;;13.10;8.13;;;6.70;99.90;;;;;;5042486;28;20036;-78
2023/02/12 00:38:10;;;;;;;12.98;8.30;;;6.70;99.90;;;;;;5054715;28;20033;-78
2023/02/12 00:40:36;;;;;;;12.55;7.97;;;6.60;99.90;;;;;;5060871;28;20086;-77
2023/02/12 00:43:02;;;;;;;16.35;10.25;;;6.60;99.90;;;;;;5070770;28;20036;-77
2023/02/12 00:45:27;;;;;;;11.55;7.97;;;6.60;99.90;;;;;;5056261;28;20111;-78
2023/02/12 00:47:53;;;;;;;12.88;8.70;;;6.40;99.90;;;;;;5073830;28;20029;-77
2023/02/12 00:50:19;;;;;;;11.48;7.85;;;6.30;99.90;;;;;;5075149;28;20056;-78
2023/02/12 00:52:44;;;;;;;12.57;8.32;;;6.20;99.90;;;;;;5057622;28;20028;-77
2023/02/12 00:55:10;;;;;;;16.60;8.95;;;6.10;99.90;;;;;;5056890;28;20075;-77
2023/02/12 00:57:36;;;;;;;13.35;8.57;;;6.10;99.90;;;;;;5069991;28;20036;-77
2023/02/12 01:00:02;;;;;;;13.48;8.38;;;6.00;99.90;;;;;;5060022;28;20051;-77
2023/02/12 01:02:27;;;;;;;16.17;8.55;;;5.90;99.90;;;;;;5057960;28;20036;-78
2023/02/12 01:04:53;;;;;;;12.82;7.70;;;5.90;99.90;;;;;;5054778;28;20029;-78
2023/02/12 01:07:22;;;;;;;12.93;8.50;;;5.80;99.90;;;;;;5055690;28;20021;-77
2023/02/12 01:09:48;;;;;;;11.80;8.15;;;5.80;99.90;;;;;;5064105;28;20075;-77
2023/02/12 01:12:13;;;;;;;11.73;6.97;;;5.80;99.90;;;;;;5056593;28;20523;-77
2023/02/12 01:14:39;;;;;;;12.68;7.75;;;5.80;99.90;;;;;;5058209;28;20432;-78
2023/02/12 01:17:08;;;;;;;13.00;8.27;;;5.80;99.90;;;;;;5074933;28;20040;-77
2023/02/12 01:19:33;;;;;;;13.38;7.75;;;5.70;99.90;;;;;;5074130;28;20096;-77
2023/02/12 01:21:59;;;;;;;14.38;8.55;;;5.60;99.90;;;;;;5074348;28;20025;-77
2023/02/12 01:24:25;;;;;;;13.25;7.95;;;5.60;99.90;;;;;;5058608;28;20021;-78
2023/02/12 01:26:50;;;;;;;13.73;7.45;;;5.60;99.90;;;;;;5068138;28;20032;-77
2023/02/12 01:29:16;;;;;;;13.77;8.65;;;5.60;99.90;;;;;;5063066;28;20190;-78
2023/02/12 01:31:42;;;;;;;11.65;7.65;;;5.70;99.90;;;;;;5057878;28;20064;-78
2023/02/12 01:34:10;;;;;;;12.80;7.38;;;5.60;99.90;;;;;;5056855;28;20028;-78
2023/02/12 01:36:37;;;;;;;13.00;7.97;;;5.60;99.90;;;;;;5063036;28;20033;-77
2023/02/12 01:39:04;;;;;;;15.13;7.60;;;5.60;99.90;;;;;;5061296;28;20032;-77
2023/02/12 01:41:42;;;;;;;10.43;7.43;;;5.60;99.90;;;;;;5060189;28;20103;-78
2023/02/12 01:44:24;;;;;;;13.57;7.57;;;5.60;99.90;;;;;;5047900;28;20027;-78
2023/02/12 01:47:01;;;;;;;12.27;7.55;;;5.60;99.90;;;;;;5062552;28;20112;-78
2023/02/12 01:49:40;;;;;;;11.40;7.30;;;5.60;99.90;;;;;;5062415;28;20028;-78
2023/02/12 01:52:27;;;;;;;13.48;7.93;;;5.60;99.90;;;;;;5058937;28;20021;-77
2023/02/12 01:54:55;;;;;;;12.07;7.57;;;5.60;99.90;;;;;;5060476;28;20175;-78
2023/02/12 01:57:23;;;;;;;15.85;8.55;;;5.60;99.90;;;;;;5059219;28;20032;-78
2023/02/12 01:59:55;;;;;;;12.73;8.10;;;5.60;99.90;;;;;;5061654;28;20500;-78
2023/02/12 02:02:21;;;;;;;13.55;8.65;;;5.50;99.90;;;;;;5074763;28;20115;-78
2023/02/12 02:04:56;;;;;;;12.50;7.40;;;5.50;99.90;;;;;;5061769;28;20021;-77
2023/02/12 02:07:22;;;;;;;12.48;7.90;;;5.50;99.90;;;;;;5071995;28;20043;-78
2023/02/12 02:09:48;;;;;;;12.23;7.30;;;5.50;99.90;;;;;;5061442;28;20024;-78
2023/02/12 02:14:59;;;;;;;14.68;8.50;;;5.50;99.90;;;;;;5056513;28;20037;-78
2023/02/12 02:17:48;;;;;;;14.25;8.32;;;5.40;99.90;;;;;;5066605;28;20512;-78
2023/02/12 02:20:37;;;;;;;15.38;8.27;;;5.30;99.90;;;;;;5060205;28;20033;-78
2023/02/12 02:23:27;;;;;;;13.35;7.95;;;5.30;99.90;;;;;;5066236;28;20028;-77
2023/02/12 02:26:28;;;;;;;13.18;8.48;;;5.20;99.90;;;;;;5075063;28;20033;-78
2023/02/12 02:29:06;;;;;;;12.57;7.32;;;5.30;99.90;;;;;;5074941;28;20021;-78
2023/02/12 02:31:36;;;;;;;14.68;8.27;;;5.20;99.90;;;;;;5056217;28;20384;-77
2023/02/12 02:34:11;;;;;;;13.18;7.70;;;5.20;99.90;;;;;;5060699;28;20035;-77
2023/02/12 02:36:40;;;;;;;13.75;8.27;;;5.10;99.90;;;;;;5055216;28;20037;-78
2023/02/12 02:39:15;;;;;;;12.35;7.70;;;5.10;99.90;;;;;;5059539;28;20029;-77
2023/02/12 02:41:54;;;;;;;13.88;8.13;;;5.10;99.90;;;;;;5075331;28;20033;-77
2023/02/12 02:44:25;;;;;;;15.00;8.88;;;5.00;99.90;;;;;;5057963;28;20036;-77
2023/02/12 02:46:53;;;;;;;14.15;8.63;;;5.00;99.90;;;;;;5060717;28;20032;-77
2023/02/12 02:49:31;;;;;;;16.55;9.57;;;5.00;99.90;;;;;;5056171;28;20535;-78
2023/02/12 02:52:05;;;;;;;14.95;9.40;;;5.00;99.90;;;;;;5061536;28;20111;-77
2023/02/12 02:54:38;;;;;;;16.15;8.88;;;4.90;99.90;;;;;;5057569;28;20029;-78
2023/02/12 02:57:08;;;;;;;15.30;9.05;;;4.90;99.90;;;;;;5076176;28;20052;-77
2023/02/12 02:59:41;;;;;;;14.57;9.02;;;4.80;99.90;;;;;;5058525;28;20110;-78
2023/02/12 03:02:20;;;;;;;15.25;8.75;;;4.80;99.90;;;;;;5062787;28;20052;-77
2023/02/12 03:04:53;;;;;;;13.27;8.40;;;4.80;99.90;;;;;;5049750;28;20064;-77
2023/02/12 03:07:25;;;;;;;16.92;9.27;;;4.80;99.90;;;;;;5064086;28;20029;-77
2023/02/12 03:10:10;;;;;;;15.07;8.48;;;4.80;99.90;;;;;;5057158;28;20033;-77
2023/02/12 03:12:42;;;;;;;12.52;7.40;;;4.70;99.90;;;;;;5075738;28;20068;-77
2023/02/12 03:15:13;;;;;;;14.13;8.00;;;4.70;99.90;;;;;;5064146;28;20082;-77
2023/02/12 03:17:48;;;;;;;15.48;8.88;;;4.70;99.90;;;;;;5065776;28;20077;-77
2023/02/12 03:20:32;;;;;;;15.80;9.10;;;4.60;99.90;;;;;;5060580;28;20284;-77
2023/02/12 03:23:37;;;;;;;15.18;8.77;;;4.60;99.90;;;;;;5075568;28;20081;-77
2023/02/12 03:26:11;;;;;;;14.85;8.82;;;4.60;99.90;;;;;;4981949;28;20142;-77
2023/02/12 03:28:39;;;;;;;15.20;9.05;;;4.60;99.90;;;;;;5002978;28;20034;-77
2023/02/12 03:31:28;;;;;;;14.25;8.48;;;4.60;99.90;;;;;;4983689;28;20034;-77
2023/02/12 03:34:27;;;;;;;13.48;8.52;;;4.60;99.90;;;;;;4982905;28;20022;-77
2023/02/12 03:37:06;;;;;;;16.42;8.25;;;4.60;99.90;;;;;;4978918;28;20050;-78
2023/02/12 03:39:47;;;;;;;17.02;8.77;;;4.60;99.90;;;;;;4987102;28;20034;-77
2023/02/12 03:42:19;;;;;;;14.95;8.50;;;4.60;99.90;;;;;;4998948;28;20044;-77
2023/02/12 03:44:54;;;;;;;16.20;8.57;;;4.60;99.90;;;;;;4988420;28;20038;-77
2023/02/12 03:47:30;;;;;;;17.40;9.52;;;4.60;99.90;;;;;;4981850;28;20052;-77
2023/02/12 03:50:18;;;;;;;14.10;7.97;;;4.60;99.90;;;;;;4987845;28;20104;-77
2023/02/12 03:52:45;;;;;;;16.17;9.50;;;4.60;99.90;;;;;;5002767;28;20030;-77
2023/02/12 03:55:12;;;;;;;16.42;9.27;;;4.60;99.90;;;;;;4970233;28;20690;-77
2023/02/12 03:57:43;;;;;;;15.45;9.32;;;4.50;99.90;;;;;;4983213;28;20038;-77
2023/02/12 04:00:14;;;;;;;14.73;8.10;;;4.50;99.90;;;;;;4964937;28;20542;-77
2023/02/12 04:02:41;;;;;;;14.77;8.73;;;4.60;99.90;;;;;;5052134;28;20045;-78
2023/02/12 04:05:08;;;;;;;16.52;8.60;;;4.50;99.90;;;;;;5071848;28;20388;-77
2023/02/12 04:07:35;;;;;;;13.70;8.10;;;4.50;99.90;;;;;;5041506;28;20060;-77
2023/02/12 04:10:01;;;;;;;13.52;7.95;;;4.50;99.90;;;;;;5076087;28;20038;-77
2023/02/12 04:12:39;;;;;;;13.48;9.00;;;4.50;99.90;;;;;;5072328;28;20041;-77
2023/02/12 04:15:05;;;;;;;14.90;8.52;;;4.50;99.90;;;;;;5060255;28;20029;-77
2023/02/12 04:17:43;;;;;;;13.48;8.57;;;4.40;99.90;;;;;;5053683;28;20031;-77
2023/02/12 04:20:36;;;;;;;14.32;7.95;;;4.40;99.90;;;;;;5064159;28;20615;-77
2023/02/12 04:23:20;;;;;;;12.25;7.47;;;4.40;99.90;;;;;;5055150;28;20163;-77
2023/02/12 04:26:20;;;;;;;12.38;7.20;;;4.50;99.90;;;;;;5072391;28;20037;-77
2023/02/12 04:29:17;;;;;;;13.77;8.00;;;4.50;99.90;;;;;;5072858;28;20461;-77
2023/02/12 04:32:15;;;;;;;12.88;7.65;;;4.40;99.90;;;;;;5072225;28;20032;-77
2023/02/12 04:34:49;;;;;;;12.20;6.50;;;4.40;99.90;;;;;;5054479;28;20052;-76
2023/02/12 04:37:23;;;;;;;12.73;7.60;;;4.40;99.90;;;;;;5058773;28;20470;-77
2023/02/12 04:39:50;;;;;;;13.00;7.30;;;4.50;99.90;;;;;;5055254;28;20040;-77
2023/02/12 04:42:16;;;;;;;10.57;6.88;;;4.50;99.90;;;;;;5059953;28;20500;-77
2023/02/12 04:44:43;;;;;;;13.02;7.57;;;4.50;99.90;;;;;;5055200;28;20039;-78
2023/02/12 04:47:12;;;;;;;11.38;7.72;;;4.50;99.90;;;;;;5072975;28;20029;-78
2023/02/12 04:49:38;;;;;;;14.63;8.70;;;4.60;99.90;;;;;;5056102;28;20420;-77
2023/02/12 04:52:03;;;;;;;13.00;7.55;;;4.60;99.90;;;;;;5063058;28;20024;-77
2023/02/12 04:54:29;;;;;;;13.98;7.85;;;4.60;99.90;;;;;;5060050;28;20056;-77
2023/02/12 04:56:55;;;;;;;14.00;7.75;;;4.60;99.90;;;;;;5061681;28;20052;-77
2023/02/12 04:59:20;;;;;;;13.63;8.45;;;4.60;99.90;;;;;;5067254;28;20029;-77
2023/02/12 05:01:46;;;;;;;11.55;7.25;;;4.70;99.90;;;;;;5060279;28;20074;-77
2023/02/12 05:04:14;;;;;;;12.40;7.40;;;4.70;99.90;;;;;;5050226;28;20428;-77
2023/02/12 05:06:41;;;;;;;12.27;6.82;;;4.70;99.90;;;;;;5076724;28;20024;-77
2023/02/12 05:09:09;;;;;;;12.45;7.00;;;4.70;99.90;;;;;;5058446;28;20025;-77
2023/02/12 05:11:34;;;;;;;12.50;7.47;;;4.70;99.90;;;;;;5076270;28;20068;-77
2023/02/12 05:14:00;;;;;;;10.82;7.30;;;4.80;99.90;;;;;;5058895;28;20064;-77
2023/02/12 05:16:26;;;;;;;12.68;7.00;;;4.80;99.90;;;;;;5076684;28;20035;-77
2023/02/12 05:18:52;;;;;;;12.70;7.38;;;4.70;99.90;;;;;;5075892;28;20055;-77
2023/02/12 05:21:18;;;;;;;11.73;7.00;;;4.70;99.90;;;;;;5059472;28;20040;-77
2023/02/12 05:23:43;;;;;;;10.43;6.55;;;4.70;99.90;;;;;;5071751;28;20508;-77
2023/02/12 05:26:18;;;;;;;11.48;6.80;;;4.80;99.90;;;;;;5068045;28;20115;-78
2023/02/12 05:28:44;;;;;;;10.68;6.80;;;4.90;99.90;;;;;;5067204;28;20040;-78
2023/02/12 05:31:13;;;;;;;13.80;7.03;;;4.90;99.90;;;;;;5057485;28;20027;-77
2023/02/12 05:33:41;;;;;;;10.85;6.18;;;4.90;99.90;;;;;;5068656;28;20427;-77
2023/02/12 05:36:10;;;;;;;11.35;6.65;;;4.90;99.90;;;;;;5048240;28;20495;-77
2023/02/12 05:38:36;;;;;;;11.13;6.40;;;4.90;99.90;;;;;;5062594;28;20044;-77
2023/02/12 05:41:20;;;;;;;11.30;6.68;;;4.90;99.90;;;;;;5058779;28;20025;-77
2023/02/12 05:43:46;;;;;;;9.02;6.07;;;4.90;99.90;;;;;;5059815;28;20045;-77
2023/02/12 05:46:12;;;;;;;9.65;5.95;;;4.90;99.90;;;;;;5060996;28;20098;-77
2023/02/12 05:48:39;;;;;;;11.23;7.15;;;4.90;99.90;;;;;;5068814;28;20024;-77
2023/02/12 05:51:18;;;;;;;12.18;7.13;;;4.90;99.90;;;;;;5060282;28;20025;-77
2023/02/12 05:53:44;;;;;;;11.02;6.43;;;5.00;99.90;;;;;;5060428;28;20029;-77
2023/02/12 05:56:16;;;;;;;10.68;6.28;;;5.00;99.90;;;;;;5072889;28;20055;-77
2023/02/12 05:58:44;;;;;;;11.55;6.97;;;5.00;99.90;;;;;;5058439;28;20048;-77
2023/02/12 06:01:19;;;;;;;12.95;6.90;;;5.00;99.90;;;;;;5065454;28;20032;-77
2023/02/12 06:03:45;;;;;;;11.93;7.00;;;4.90;99.90;;;;;;5066797;28;20040;-77
2023/02/12 06:06:12;;;;;;;11.80;7.38;;;5.00;99.90;;;;;;5058391;28;20027;-77
2023/02/12 06:08:37;;;;;;;12.25;7.65;;;5.00;99.90;;;;;;5060212;28;20474;-77
2023/02/12 06:11:06;;;;;;;11.20;6.70;;;5.00;99.90;;;;;;5055994;28;20032;-78
2023/02/12 06:13:32;;;;;;;10.18;6.63;;;5.00;99.90;;;;;;5054996;28;20386;-78
2023/02/12 06:15:59;;;;;;;11.52;7.00;;;5.00;99.90;;;;;;5062084;28;20041;-77
2023/02/12 06:18:25;;;;;;;13.85;7.30;;;5.00;99.90;;;;;;5075254;28;20131;-78
2023/02/12 06:20:53;;;;;;;14.55;8.13;;;5.00;99.90;;;;;;5055383;28;20065;-78
2023/02/12 06:23:20;;;;;;;13.15;7.75;;;5.00;99.90;;;;;;5076027;28;20036;-77
2023/02/12 06:25:47;;;;;;;14.27;7.90;;;5.10;99.90;;;;;;5077246;28;20078;-76
2023/02/12 06:28:13;;;;;;;12.43;7.40;;;5.10;99.90;;;;;;5058312;28;20086;-77
2023/02/12 06:30:39;;;;;;;13.48;7.55;;;5.10;99.90;;;;;;5059542;28;20021;-77
2023/02/12 06:33:04;;;;;;;12.63;7.65;;;5.10;99.90;;;;;;5057882;28;20374;-78
2023/02/12 06:35:30;;;;;;;13.10;7.60;;;5.20;99.90;;;;;;5057693;28;20029;-78
2023/02/12 06:37:56;;;;;;;12.88;8.23;;;5.10;99.90;;;;;;5057781;28;20049;-78
2023/02/12 06:40:21;;;;;;;13.20;7.80;;;5.10;99.90;;;;;;5071947;28;20039;-77
2023/02/12 06:42:47;;;;;;;13.50;7.50;;;5.20;99.90;;;;;;5072685;28;20031;-77
2023/02/12 06:45:13;;;;;;;12.70;8.10;;;5.20;99.90;;;;;;5065721;28;20029;-78
2023/02/12 06:47:38;;;;;;;13.63;8.38;;;5.10;99.90;;;;;;5056456;28;20033;-78
2023/02/12 06:50:05;;;;;;;12.50;7.28;;;5.20;99.90;;;;;;5063571;28;20033;-77
2023/02/12 06:52:30;;;;;;;11.70;7.75;;;5.20;99.90;;;;;;5057355;28;20110;-78
2023/02/12 06:54:56;;;;;;;13.13;8.20;;;5.20;99.90;;;;;;5062729;28;20614;-78
2023/02/12 06:57:22;;;;;;;13.07;7.53;;;5.10;99.90;;;;;;5054832;28;20035;-78
2023/02/12 06:59:48;;;;;;;14.43;8.68;;;5.20;99.90;;;;;;5058409;28;20029;-77
2023/02/12 07:02:14;;;;;;;15.48;9.10;;;5.20;99.90;;;;;;5059299;28;20029;-77
2023/02/12 07:04:40;;;;;;;13.73;8.18;;;5.30;99.90;;;;;;5067133;28;20035;-78
2023/02/12 07:07:05;;;;;;;14.98;9.15;;;5.30;99.90;;;;;;5059672;28;20099;-78
2023/02/12 07:09:31;;;;;;;14.35;8.80;;;5.30;99.90;;;;;;5062444;28;20021;-78
2023/02/12 07:11:58;;;;;;;14.05;8.20;;;5.20;99.90;;;;;;5069332;28;20048;-78
2023/02/12 07:14:27;;;;;;;13.90;9.00;;;5.30;99.90;;;;;;5057824;28;20040;-79
2023/02/12 07:16:56;;;;;;;14.05;8.65;;;5.30;99.90;;;;;;5072454;28;20039;-78
2023/02/12 07:19:22;;;;;;;14.02;8.50;;;5.30;99.90;;;;;;5059280;28;20075;-79
2023/02/12 07:21:48;;;;;;;13.57;8.65;;;5.30;99.90;;;;;;5056106;28;20084;-78
2023/02/12 07:24:14;;;;;;;14.18;9.10;;;5.30;99.90;;;;;;5058648;28;20028;-79
2023/02/12 07:26:40;;;;;;;14.82;9.23;;;5.30;99.90;;;;;;5065814;28;20028;-78
2023/02/12 07:29:06;;;;;;;13.70;8.70;;;5.30;99.90;;;;;;5064072;28;20033;-78
2023/02/12 07:31:32;;;;;;;16.55;9.93;;;5.40;99.90;;;;;;5060229;28;20017;-79
2023/02/12 07:33:59;;;;;;;15.20;9.57;;;5.40;99.90;;;;;;5064772;28;20507;-78
2023/02/12 07:36:28;;;;;;;14.90;9.38;;;5.50;99.90;;;;;;5055492;28;20045;-78
2023/02/12 07:38:55;;;;;;;16.40;9.47;;;5.60;99.90;;;;;;5058560;28;20040;-78
2023/02/12 07:41:24;;;;;;;17.70;10.25;;;5.60;99.90;;;;;;5071334;28;20051;-78
2023/02/12 07:43:54;;;;;;;14.75;9.05;;;5.60;99.90;;;;;;5056340;28;20039;-78
2023/02/12 07:46:28;;;;;;;14.73;9.00;;;5.60;99.90;;;;;;5054078;28;20025;-77
2023/02/12 07:48:55;;;;;;;16.13;9.70;;;5.70;99.90;;;;;;5057220;28;21905;-77
2023/02/12 07:51:21;;;;;;;15.35;9.43;;;5.70;99.90;;;;;;5056573;28;20025;-77
2023/02/12 07:53:47;;;;;;;16.27;9.07;;;5.80;99.90;;;;;;5061369;28;20111;-77
2023/02/12 07:56:17;;;;;;;15.52;9.48;;;5.80;99.90;;;;;;5057891;28;20036;-78
2023/02/12 07:58:44;;;;;;;13.30;8.73;;;5.80;99.90;;;;;;5054548;28;20166;-78
2023/02/12 08:01:17;;;;;;;16.30;10.25;;;5.80;99.90;;;;;;5069468;28;20427;-78
2023/02/12 08:03:43;;;;;;;19.30;9.80;;;5.90;99.90;;;;;;5059711;28;20028;-78
2023/02/12 08:06:11;;;;;;;15.90;9.88;;;5.90;99.90;;;;;;5063167;28;20025;-78
2023/02/12 08:08:37;;;;;;;15.43;9.95;;;5.90;99.90;;;;;;5070429;28;20423;-78
2023/02/12 08:11:05;;;;;;;16.45;10.13;;;6.00;99.90;;;;;;5059825;28;20029;-77
2023/02/12 08:13:31;;;;;;;17.17;11.18;;;6.00;99.90;;;;;;5059276;28;20096;-78
2023/02/12 08:16:09;;;;;;;15.27;10.40;;;6.10;99.90;;;;;;5040239;28;20503;-77
2023/02/12 08:18:34;;;;;;;16.00;9.45;;;6.10;99.90;;;;;;5056386;28;20067;-77
2023/02/12 08:21:06;;;;;;;15.27;10.43;;;6.10;99.90;;;;;;5070012;28;20189;-78
2023/02/12 08:23:34;;;;;;;17.08;9.85;;;6.20;99.90;;;;;;5055637;28;20377;-78
2023/02/12 08:26:17;;;;;;;15.57;9.35;;;6.20;99.90;;;;;;5058826;28;20025;-78
2023/02/12 08:28:45;;;;;;;17.25;10.25;;;6.30;99.90;;;;;;5065062;28;20078;-77
2023/02/12 08:31:14;;;;;;;16.60;10.02;;;6.30;99.90;;;;;;5060603;28;20032;-78
2023/02/12 08:33:39;;;;;;;16.00;10.13;;;6.30;99.90;;;;;;5061960;28;20473;-78
2023/02/12 08:36:11;;;;;;;15.90;10.23;;;6.30;99.90;;;;;;5069258;28;20127;-78
2023/02/12 08:38:38;;;;;;;16.02;9.95;;;6.40;99.90;;;;;;5056557;28;20125;-78
2023/02/12 08:41:10;;;;;;;15.40;10.23;;;6.40;99.90;;;;;;5059392;28;20485;-78
2023/02/12 08:43:36;;;;;;;16.70;11.13;;;6.40;99.90;;;;;;5062035;28;20063;-78
2023/02/12 08:46:04;;;;;;;17.92;11.00;;;6.50;99.90;;;;;;5067453;28;20035;-78
2023/02/12 08:48:30;;;;;;;14.93;9.88;;;6.60;99.90;;;;;;5051308;28;20473;-78
2023/02/12 08:51:03;;;;;;;15.52;10.88;;;6.60;99.90;;;;;;5062202;28;20033;-78
2023/02/12 08:53:29;;;;;;;17.33;11.02;;;6.60;99.90;;;;;;5068193;28;20036;-79
2023/02/12 08:55:54;;;;;;;13.80;9.55;;;6.70;99.90;;;;;;5041053;28;20045;-78
2023/02/12 08:58:20;;;;;;;15.48;11.40;;;6.70;99.90;;;;;;5061599;28;20033;-78
2023/02/12 09:00:45;;;;;;;17.00;11.05;;;6.70;99.90;;;;;;5047077;28;20405;-78
2023/02/12 09:03:11;;;;;;;17.10;10.20;;;6.70;99.90;;;;;;5059447;28;20395;-78
2023/02/12 09:05:40;;;;;;;14.80;9.77;;;6.80;99.90;;;;;;5056626;28;20114;-78
2023/02/12 09:08:07;;;;;;;13.55;9.13;;;6.80;99.90;;;;;;5059782;28;20036;-79
2023/02/12 09:10:37;;;;;;;13.75;8.90;;;6.90;99.90;;;;;;5078084;28;20017;-78
2023/02/12 09:13:03;;;;;;;14.95;9.82;;;6.90;99.90;;;;;;5071543;28;20028;-78
2023/02/12 09:15:28;;;;;;;15.23;9.82;;;7.00;99.90;;;;;;5059115;28;20153;-78
2023/02/12 09:17:54;;;;;;;15.15;9.93;;;7.00;99.90;;;;;;5066001;28;20036;-77
2023/02/12 09:20:20;;;;;;;15.35;10.38;;;7.00;99.90;;;;;;5074764;28;20033;-78
2023/02/12 09:22:45;;;;;;;15.98;10.77;;;7.00;99.90;;;;;;5061021;28;20028;-78
2023/02/12 09:25:11;;;;;;;16.15;11.13;;;7.00;99.90;;;;;;5060272;28;20048;-78
2023/02/12 09:27:37;;;;;;;18.20;10.57;;;7.10;99.90;;;;;;5045495;28;20535;-78
2023/02/12 09:30:02;;;;;;;16.73;10.85;;;7.10;99.90;;;;;;5061116;28;20043;-79
2023/02/12 09:32:28;;;;;;;15.82;10.40;;;7.20;99.90;;;;;;5059747;28;20028;-78
2023/02/12 09:34:54;;;;;;;15.15;10.35;;;7.20;99.90;;;;;;5042097;28;20382;-78
2023/02/12 09:37:20;;;;;;;17.48;10.77;;;7.30;99.90;;;;;;5062168;28;20111;-77
2023/02/12 09:39:45;;;;;;;16.70;11.13;;;7.30;99.90;;;;;;5046030;28;20039;-77
2023/02/12 09:42:20;;;;;;;15.27;10.57;;;7.30;99.90;;;;;;5058749;28;20028;-78
2023/02/12 09:44:55;;;;;;;16.08;9.90;;;7.30;99.90;;;;;;5056548;28;20037;-78
2023/02/12 09:47:37;;;;;;;15.18;10.55;;;7.40;99.90;;;;;;5074888;28;20028;-78
2023/02/12 09:50:45;;;;;;;16.92;10.68;;;7.40;99.90;;;;;;5046875;28;20041;-79
2023/02/12 09:53:17;;;;;;;15.77;10.73;;;7.40;99.90;;;;;;5007262;28;20032;-78
2023/02/12 09:55:42;;;;;;;16.23;9.43;;;7.50;99.90;;;;;;5033417;28;20064;-78
2023/02/12 09:58:14;;;;;;;17.70;11.90;;;7.50;99.90;;;;;;5036807;28;20041;-78
2023/02/12 10:00:40;;;;;;;17.77;10.80;;;7.50;99.90;;;;;;5020284;28;20087;-78
2023/02/12 10:03:13;;;;;;;16.58;10.98;;;7.50;99.90;;;;;;5029074;28;20034;-78
2023/02/12 10:05:49;;;;;;;18.25;11.23;;;7.50;99.90;;;;;;5020633;28;20418;-78
2023/02/12 10:08:45;;;;;;;16.48;10.75;;;7.60;99.90;;;;;;5035612;28;20036;-78
2023/02/12 10:11:37;;;;;;;16.08;10.63;;;7.70;99.90;;;;;;5020458;28;20038;-78
2023/02/12 10:14:21;;;;;;;17.08;10.90;;;7.70;99.90;;;;;;5023321;28;20040;-78
2023/02/12 10:17:29;;;;;;;19.17;12.07;;;7.70;99.90;;;;;;5036821;28;20600;-78
2023/02/12 10:20:20;;;;;;;18.02;11.68;;;7.70;99.90;;;;;;5036174;28;21142;-78
2023/02/12 10:22:55;;;;;;;;;;;7.70;99.90;;;;;;5006744;28;20041;-78
2023/02/12 10:25:38;;;;;;;15.90;9.73;;;7.80;99.90;;;;;;5056733;28;20388;-78
2023/02/12 10:28:37;;;;;;;15.50;10.73;;;7.90;99.90;;;;;;5058789;28;20434;-78
2023/02/12 10:31:08;;;;;;;14.98;10.50;;;7.90;99.90;;;;;;5049875;28;20492;-79
2023/02/12 10:33:42;;;;;;;18.85;12.27;;;7.90;99.90;;;;;;5058500;28;20112;-78
2023/02/12 10:36:14;;;;;;;18.63;12.15;;;8.00;99.90;;;;;;5052503;28;20066;-78
2023/02/12 10:38:45;;;;;;;19.52;12.18;;;8.00;99.90;;;;;;5043256;28;20049;-78
2023/02/12 10:41:14;;;;;;;17.70;11.82;;;8.00;99.90;;;;;;5057485;28;20032;-78
2023/02/12 10:43:40;;;;;;;15.30;10.57;;;8.10;99.90;;;;;;5045027;28;20053;-78
2023/02/12 10:46:16;;;;;;;17.58;11.48;;;8.10;99.90;;;;;;5060434;28;20040;-78
2023/02/12 10:48:45;;;;;;;18.23;12.05;;;8.10;99.90;;;;;;5061574;28;20131;-78
2023/02/12 10:51:40;;;;;;;17.55;11.43;;;8.10;99.90;;;;;;5042884;28;20063;-78
2023/02/12 10:54:32;;;;;;;15.90;10.45;;;8.20;99.90;;;;;;5047051;28;20477;-78
2023/02/12 10:57:03;;;;;;;16.48;11.30;;;8.20;99.90;;;;;;5053939;28;21866;-78
2023/02/12 10:59:29;;;;;;;13.77;9.60;;;8.30;99.90;;;;;;5054677;28;20037;-78
2023/02/12 11:01:54;;;;;;;16.50;10.77;;;8.40;99.90;;;;;;5073364;28;20031;-78
2023/02/12 11:04:25;;;;;;;15.90;10.65;;;8.40;99.90;;;;;;5055415;28;20029;-78
2023/02/12 11:07:08;;;;;;;17.90;12.13;;;8.50;99.90;;;;;;5055514;28;20037;-78
2023/02/12 11:09:44;;;;;;;24.65;15.45;;;8.60;99.90;;;;;;5054266;28;20380;-78
2023/02/12 11:12:38;;;;;;;25.50;15.98;;;8.60;99.90;;;;;;5064334;28;20039;-78
2023/02/12 11:15:07;;;;;;;25.05;15.75;;;8.80;99.90;;;;;;5052696;28;20033;-78
2023/02/12 11:17:39;;;;;;;24.48;16.15;;;8.80;99.90;;;;;;5055515;28;20115;-78
2023/02/12 11:20:17;;;;;;;21.77;14.77;;;8.80;99.90;;;;;;5054140;28;20156;-78
2023/02/12 11:23:05;;;;;;;24.20;15.60;;;8.90;99.90;;;;;;5044012;28;20175;-78
2023/02/12 11:25:36;;;;;;;17.90;12.50;;;8.80;99.90;;;;;;5061417;28;20020;-78
2023/02/12 11:28:04;;;;;;;18.58;11.38;;;9.00;99.90;;;;;;5058466;28;20108;-78
2023/02/12 11:30:30;;;;;;;15.77;10.65;;;9.00;99.90;;;;;;5064961;28;20392;-78
2023/02/12 11:33:24;;;;;;;18.02;10.73;;;9.00;99.90;;;;;;5044712;28;20460;-78
2023/02/12 11:35:55;;;;;;;18.15;12.27;;;9.20;99.90;;;;;;5060586;28;20024;-78
2023/02/12 11:38:25;;;;;;;19.15;12.85;;;9.20;99.90;;;;;;5059222;28;20041;-78
2023/02/12 11:40:56;;;;;;;19.92;13.38;;;9.20;99.90;;;;;;5053363;28;20573;-78
2023/02/12 11:43:23;;;;;;;16.98;11.13;;;9.10;99.90;;;;;;5056605;28;20039;-78
2023/02/12 11:45:55;;;;;;;16.25;10.75;;;9.10;99.90;;;;;;5045744;28;20036;-78
2023/02/12 11:48:34;;;;;;;16.90;10.95;;;9.20;99.90;;;;;;5043653;28;20032;-78
2023/02/12 11:51:03;;;;;;;16.13;10.45;;;9.10;99.90;;;;;;5056542;28;20028;-78
2023/02/12 11:53:35;;;;;;;17.17;10.60;;;9.20;99.90;;;;;;5039302;28;20039;-78
2023/02/12 11:56:07;;;;;;;17.80;11.10;;;9.10;99.90;;;;;;5057297;28;20424;-78
2023/02/12 11:58:33;;;;;;;18.02;10.02;;;9.00;99.90;;;;;;5040208;28;20032;-78
2023/02/12 12:01:26;;;;;;;19.70;11.57;;;9.10;99.90;;;;;;5055358;28;20033;-78
2023/02/12 12:04:04;;;;;;;20.20;12.55;;;9.20;99.90;;;;;;5055210;28;20410;-78
2023/02/12 12:06:38;;;;;;;19.23;12.32;;;9.20;99.90;;;;;;5059029;28;20025;-78
2023/02/12 12:09:14;;;;;;;23.45;14.43;;;9.20;99.90;;;;;;5057061;28;20036;-78
2023/02/12 12:12:15;;;;;;;21.52;13.48;;;9.20;99.90;;;;;;5057484;28;20029;-78
2023/02/12 12:21:02;;;;;;;25.02;15.35;;;9.20;99.90;;;;;;5070457;28;20150;-77
2023/02/12 12:23:37;;;;;;;24.63;14.02;;;9.20;99.90;;;;;;5035626;28;20040;-78
2023/02/12 12:26:17;;;;;;;18.27;10.95;;;9.20;99.90;;;;;;5055729;28;20532;-78
2023/02/12 12:29:07;;;;;;;20.90;12.13;;;9.30;99.90;;;;;;5043593;28;20021;-77
2023/02/12 12:31:36;;;;;;;22.23;14.13;;;9.30;99.90;;;;;;5059120;28;20025;-78
2023/02/12 12:34:18;;;;;;;21.33;12.13;;;9.20;99.90;;;;;;5037423;28;20040;-78
2023/02/12 12:37:11;;;;;;;24.08;12.70;;;9.30;99.90;;;;;;5055137;28;20115;-78
2023/02/12 12:40:01;;;;;;;19.45;11.55;;;9.30;99.90;;;;;;5052731;28;20028;-78
2023/02/12 12:42:57;;;;;;;14.27;8.93;;;9.30;99.90;;;;;;5052340;28;20029;-77
2023/02/12 12:45:41;;;;;;;19.85;11.48;;;9.40;99.90;;;;;;5062518;28;20119;-78
2023/02/12 12:48:20;;;;;;;25.08;14.50;;;9.30;99.90;;;;;;5043681;28;20404;-78
2023/02/12 12:50:56;;;;;;;24.08;14.15;;;9.20;99.90;;;;;;5057553;28;20077;-78
2023/02/12 12:53:43;;;;;;;19.65;11.88;;;9.20;99.90;;;;;;5059872;28;20074;-78
2023/02/12 12:56:14;;;;;;;16.95;10.93;;;9.30;99.90;;;;;;5055213;28;20549;-78
2023/02/12 12:58:45;;;;;;;17.30;10.27;;;9.30;99.90;;;;;;5052360;28;20417;-77
2023/02/12 13:01:49;;;;;;;16.50;9.88;;;9.30;99.90;;;;;;5037505;28;20384;-78
2023/02/12 13:04:17;;;;;;;11.82;7.57;;;9.30;99.90;;;;;;5058688;28;20131;-78
2023/02/12 13:06:52;;;;;;;15.07;9.00;;;9.30;99.90;;;;;;5053748;28;20112;-78
2023/02/12 13:09:48;;;;;;;13.02;8.18;;;9.20;99.90;;;;;;5058253;28;20786;-78
2023/02/12 13:12:33;;;;;;;18.42;10.55;;;9.30;99.90;;;;;;5060872;28;20064;-78
2023/02/12 13:15:14;;;;;;;21.67;13.40;;;9.20;99.90;;;;;;5055907;28;20157;-78
2023/02/12 13:17:48;;;;;;;29.40;18.42;;;9.20;99.90;;;;;;5045699;28;20032;-78